createdAt,value
2018-10-11T00:00:08.938Z,17.37
2018-10-11T00:00:48.558Z,17.33
2018-10-11T00:01:27.848Z,17.40
2018-10-11T00:02:06.105Z,17.83
2018-10-11T00:02:45.326Z,17.30
2018-10-11T00:03:25.214Z,17.40
2018-10-11T00:04:03.063Z,18.87
2018-10-11T00:04:41.148Z,19.27
2018-10-11T00:05:18.993Z,19.67
2018-10-11T00:05:58.803Z,19.90
2018-10-11T00:06:37.688Z,17.30
2018-10-11T00:07:15.633Z,18.90
2018-10-11T00:07:53.484Z,18.60
2018-10-11T00:08:31.292Z,19.43
2018-10-11T00:09:11.464Z,18.13
2018-10-11T00:09:50.460Z,17.73
2018-10-11T00:10:28.673Z,19.73
2018-10-11T00:11:06.515Z,18.30
2018-10-11T00:11:45.958Z,18.30
2018-10-11T00:12:25.653Z,17.70
2018-10-11T00:13:04.918Z,18.13
2018-10-11T00:13:43.250Z,19.33
2018-10-11T00:14:22.199Z,18.57
2018-10-11T00:15:00.117Z,19.07
2018-10-11T00:15:39.350Z,17.80
2018-10-11T00:16:17.181Z,18.83
2018-10-11T00:16:55.052Z,18.50
2018-10-11T00:17:32.899Z,19.00
2018-10-11T00:18:10.803Z,18.37
2018-10-11T00:18:48.669Z,18.10
2018-10-11T00:19:26.565Z,18.70
2018-10-11T00:20:04.533Z,19.17
2018-10-11T00:20:42.533Z,19.40
2018-10-11T00:21:20.344Z,18.07
2018-10-11T00:21:58.213Z,18.97
2018-10-11T00:22:36.214Z,18.60
2018-10-11T00:23:14.152Z,19.30
2018-10-11T00:23:52.368Z,18.43
2018-10-11T00:24:30.284Z,18.40
2018-10-11T00:25:08.261Z,18.17
2018-10-11T00:25:46.253Z,18.20
2018-10-11T00:26:24.229Z,18.03
2018-10-11T00:27:02.126Z,17.33
2018-10-11T00:27:39.984Z,18.17
2018-10-11T00:28:17.921Z,17.70
2018-10-11T00:28:55.841Z,17.20
2018-10-11T00:29:33.800Z,16.93
2018-10-11T00:30:11.872Z,16.40
2018-10-11T00:30:49.926Z,17.70
2018-10-11T00:31:27.953Z,15.07
2018-10-11T00:32:05.877Z,16.57
2018-10-11T00:32:44.053Z,15.10
2018-10-11T00:33:21.917Z,15.73
2018-10-11T00:33:59.764Z,16.60
2018-10-11T00:34:37.626Z,17.17
2018-10-11T00:35:15.793Z,15.87
2018-10-11T00:35:54.791Z,16.13
2018-10-11T00:36:32.674Z,16.00
2018-10-11T00:37:10.813Z,15.30
2018-10-11T00:37:48.709Z,15.17
2018-10-11T00:38:26.575Z,15.70
2018-10-11T00:39:04.789Z,14.70
2018-10-11T00:39:42.946Z,16.03
2018-10-11T00:40:20.829Z,15.73
2018-10-11T00:40:58.769Z,15.20
2018-10-11T00:41:36.738Z,16.37
2018-10-11T00:42:15.868Z,15.63
2018-10-11T00:42:53.718Z,15.10
2018-10-11T00:43:31.606Z,14.70
2018-10-11T00:44:09.674Z,15.30
2018-10-11T00:44:48.097Z,15.27
2018-10-11T00:45:26.115Z,14.97
2018-10-11T00:46:04.346Z,14.30
2018-10-11T00:46:42.286Z,14.90
2018-10-11T00:47:20.190Z,14.10
2018-10-11T00:47:58.045Z,13.63
2018-10-11T00:48:35.964Z,15.07
2018-10-11T00:49:14.692Z,15.60
2018-10-11T00:49:52.652Z,15.73
2018-10-11T00:50:30.528Z,14.50
2018-10-11T00:51:08.453Z,14.50
2018-10-11T00:51:46.315Z,16.07
2018-10-11T00:52:24.458Z,14.97
2018-10-11T00:53:02.534Z,15.23
2018-10-11T00:53:40.481Z,14.83
2018-10-11T00:54:18.526Z,14.60
2018-10-11T00:54:56.562Z,14.93
2018-10-11T00:55:34.490Z,14.80
2018-10-11T00:56:12.463Z,14.00
2018-10-11T00:56:50.514Z,15.33
2018-10-11T00:57:29.137Z,14.37
2018-10-11T00:58:07.528Z,14.77
2018-10-11T00:58:45.870Z,14.63
2018-10-11T00:59:24.234Z,14.87
2018-10-11T01:00:03.244Z,15.90
2018-10-11T01:00:41.694Z,15.57
2018-10-11T01:01:20.451Z,14.77
2018-10-11T01:01:59.162Z,14.67
2018-10-11T01:02:38.492Z,15.30
2018-10-11T01:03:17.195Z,14.63
2018-10-11T01:03:55.608Z,15.97
2018-10-11T01:04:34.263Z,13.60
2018-10-11T01:05:12.931Z,14.23
2018-10-11T01:05:51.719Z,13.53
2018-10-11T01:06:30.831Z,14.80
2018-10-11T01:07:09.330Z,13.50
2018-10-11T01:07:48.371Z,15.47
2018-10-11T01:08:27.366Z,15.13
2018-10-11T01:09:06.742Z,15.80
2018-10-11T01:09:45.183Z,16.40
2018-10-11T01:10:23.992Z,14.13
2018-10-11T01:11:02.521Z,14.23
2018-10-11T01:11:41.453Z,14.90
2018-10-11T01:12:20.122Z,14.50
2018-10-11T01:12:58.817Z,14.53
2018-10-11T01:13:37.643Z,14.50
2018-10-11T01:17:17.709Z,13.53
2018-10-11T01:17:56.329Z,15.20
2018-10-11T01:18:35.238Z,14.00
2018-10-11T01:19:14.048Z,13.63
2018-10-11T01:19:52.764Z,14.43
2018-10-11T01:20:31.332Z,15.03
2018-10-11T01:21:10.663Z,15.70
2018-10-11T01:21:48.994Z,14.20
2018-10-11T01:22:27.671Z,14.83
2018-10-11T01:23:06.160Z,16.20
2018-10-11T01:23:44.607Z,15.00
2018-10-11T01:24:22.933Z,13.90
2018-10-11T01:25:01.779Z,15.73
2018-10-11T01:25:40.273Z,15.50
2018-10-11T01:26:18.677Z,15.87
2018-10-11T01:26:56.897Z,15.93
2018-10-11T01:27:35.269Z,14.67
2018-10-11T01:28:14.318Z,14.80
2018-10-11T01:28:52.258Z,15.00
2018-10-11T01:29:30.244Z,15.70
2018-10-11T01:30:08.907Z,16.40
2018-10-11T01:30:51.014Z,15.83
2018-10-11T01:31:29.510Z,16.20
2018-10-11T01:32:07.426Z,14.90
2018-10-11T01:32:45.473Z,15.50
2018-10-11T01:33:23.545Z,15.10
2018-10-11T01:34:01.860Z,15.70
2018-10-11T01:34:39.805Z,15.70
2018-10-11T01:35:17.709Z,16.37
2018-10-11T01:35:55.633Z,15.00
2018-10-11T01:36:33.548Z,15.80
2018-10-11T01:37:11.689Z,15.50
2018-10-11T01:37:49.760Z,16.07
2018-10-11T01:38:28.132Z,16.03
2018-10-11T01:39:07.049Z,14.27
2018-10-11T01:39:45.168Z,15.80
2018-10-11T01:40:23.078Z,15.57
2018-10-11T01:41:01.079Z,14.37
2018-10-11T01:41:39.352Z,15.37
2018-10-11T01:42:17.382Z,15.80
2018-10-11T01:43:04.997Z,15.27
2018-10-11T01:43:43.522Z,15.80
2018-10-11T01:44:21.473Z,15.63
2018-10-11T01:44:59.546Z,15.87
2018-10-11T01:45:37.818Z,15.30
2018-10-11T01:46:16.674Z,15.60
2018-10-11T01:46:54.492Z,15.60
2018-10-11T01:47:32.389Z,16.40
2018-10-11T01:48:10.505Z,16.60
2018-10-11T01:48:48.404Z,15.20
2018-10-11T01:49:26.308Z,15.53
2018-10-11T01:50:04.139Z,16.37
2018-10-11T01:50:41.985Z,16.20
2018-10-11T01:51:20.725Z,15.17
2018-10-11T01:51:58.689Z,15.33
2018-10-11T01:52:36.738Z,15.93
2018-10-11T01:53:14.896Z,15.37
2018-10-11T01:53:53.143Z,15.13
2018-10-11T01:54:31.112Z,17.30
2018-10-11T01:55:09.680Z,15.70
2018-10-11T01:55:47.719Z,14.73
2018-10-11T01:56:25.742Z,15.70
2018-10-11T01:57:03.604Z,15.43
2018-10-11T01:57:41.484Z,15.23
2018-10-11T01:58:19.441Z,15.80
2018-10-11T01:58:57.350Z,14.50
2018-10-11T01:59:35.326Z,14.23
2018-10-11T02:00:13.285Z,14.40
2018-10-11T02:00:51.384Z,15.13
2018-10-11T02:01:29.273Z,15.03
2018-10-11T02:02:07.243Z,14.80
2018-10-11T02:02:45.173Z,16.53
2018-10-11T02:03:23.517Z,15.13
2018-10-11T02:04:02.992Z,15.10
2018-10-11T02:04:41.168Z,14.87
2018-10-11T02:05:19.237Z,16.03
2018-10-11T02:05:57.179Z,15.40
2018-10-11T02:06:35.142Z,14.37
2018-10-11T02:07:13.073Z,14.67
2018-10-11T02:07:51.065Z,15.20
2018-10-11T02:08:28.989Z,14.70
2018-10-11T02:09:06.898Z,14.80
2018-10-11T02:09:45.049Z,15.80
2018-10-11T02:10:22.955Z,14.67
2018-10-11T02:11:00.851Z,13.83
2018-10-11T02:11:38.883Z,15.40
2018-10-11T02:12:16.749Z,15.00
2018-10-11T02:12:54.881Z,15.40
2018-10-11T02:13:32.789Z,15.70
2018-10-11T02:14:10.756Z,16.43
2018-10-11T02:14:48.698Z,15.70
2018-10-11T02:15:27.107Z,15.03
2018-10-11T02:16:05.206Z,15.97
2018-10-11T02:16:43.363Z,14.07
2018-10-11T02:17:21.233Z,14.97
2018-10-11T02:17:59.896Z,14.60
2018-10-11T02:18:38.105Z,13.87
2018-10-11T02:19:16.595Z,13.67
2018-10-11T02:19:54.559Z,13.57
2018-10-11T02:20:32.537Z,14.37
2018-10-11T02:21:11.101Z,13.70
2018-10-11T02:21:48.970Z,14.60
2018-10-11T02:22:27.009Z,14.30
2018-10-11T02:23:04.995Z,14.70
2018-10-11T02:23:43.033Z,14.07
2018-10-11T02:24:20.857Z,13.80
2018-10-11T02:24:58.905Z,13.87
2018-10-11T02:25:36.756Z,13.60
2018-10-11T02:26:14.862Z,12.93
2018-10-11T02:26:52.925Z,14.20
2018-10-11T02:27:30.780Z,13.87
2018-10-11T02:28:08.996Z,13.70
2018-10-11T02:28:46.981Z,13.80
2018-10-11T02:29:25.819Z,13.70
2018-10-11T02:30:03.791Z,12.83
2018-10-11T02:30:41.715Z,14.50
2018-10-11T02:31:19.704Z,14.97
2018-10-11T02:31:57.688Z,12.70
2018-10-11T02:32:35.603Z,13.20
2018-10-11T02:33:13.755Z,13.90
2018-10-11T02:33:51.721Z,13.90
2018-10-11T02:34:29.803Z,14.90
2018-10-11T02:35:07.960Z,14.13
2018-10-11T02:35:45.891Z,13.90
2018-10-11T02:36:25.154Z,14.20
2018-10-11T02:37:03.026Z,13.37
2018-10-11T02:37:41.061Z,13.40
2018-10-11T02:38:18.974Z,13.57
2018-10-11T02:38:56.821Z,12.40
2018-10-11T02:39:34.778Z,13.30
2018-10-11T02:40:12.799Z,14.20
2018-10-11T02:40:50.668Z,13.17
2018-10-11T02:41:28.872Z,14.80
2018-10-11T02:42:07.521Z,13.43
2018-10-11T02:42:45.495Z,13.90
2018-10-11T02:43:23.422Z,14.27
2018-10-11T02:44:01.552Z,14.00
2018-10-11T02:44:39.431Z,14.33
2018-10-11T02:45:17.342Z,14.40
2018-10-11T02:45:55.262Z,13.70
2018-10-11T02:46:33.061Z,13.03
2018-10-11T02:47:11.355Z,14.30
2018-10-11T02:47:49.258Z,13.53
2018-10-11T02:48:27.222Z,13.87
2018-10-11T02:49:05.276Z,13.33
2018-10-11T02:49:43.772Z,14.03
2018-10-11T02:50:21.696Z,14.80
2018-10-11T02:50:59.700Z,13.40
2018-10-11T02:51:37.892Z,13.57
2018-10-11T02:52:16.670Z,13.55
2018-10-11T02:52:54.833Z,14.20
2018-10-11T02:53:32.913Z,12.37
2018-10-11T02:54:12.077Z,12.53
2018-10-11T02:54:49.938Z,11.93
2018-10-11T02:55:29.761Z,13.30
2018-10-11T02:56:09.141Z,13.07
2018-10-11T02:56:47.346Z,13.53
2018-10-11T02:57:34.057Z,12.20
2018-10-11T02:58:20.956Z,12.30
2018-10-11T02:59:23.095Z,13.80
2018-10-11T03:00:02.499Z,13.70
2018-10-11T03:00:40.935Z,13.07
2018-10-11T03:01:19.162Z,12.90
2018-10-11T03:01:57.729Z,13.40
2018-10-11T03:02:36.098Z,14.13
2018-10-11T03:03:17.625Z,12.30
2018-10-11T03:04:00.941Z,13.57
2018-10-11T03:04:39.873Z,14.67
2018-10-11T03:05:21.046Z,13.07
2018-10-11T03:06:03.652Z,13.77
2018-10-11T03:06:42.106Z,14.03
2018-10-11T03:07:20.308Z,12.83
2018-10-11T03:07:58.429Z,12.30
2018-10-11T03:08:36.959Z,13.50
2018-10-11T03:09:15.204Z,13.63
2018-10-11T03:09:53.441Z,13.60
2018-10-11T03:10:31.444Z,13.17
2018-10-11T03:11:09.397Z,13.87
2018-10-11T03:11:47.488Z,13.90
2018-10-11T03:12:25.428Z,12.87
2018-10-11T03:13:03.252Z,12.20
2018-10-11T03:13:41.141Z,13.70
2018-10-11T03:14:19.023Z,12.93
2018-10-11T03:14:57.242Z,13.00
2018-10-11T03:15:35.084Z,12.83
2018-10-11T03:16:13.020Z,12.70
2018-10-11T03:16:50.969Z,13.20
2018-10-11T03:17:29.061Z,13.77
2018-10-11T03:18:07.142Z,12.80
2018-10-11T03:18:45.089Z,12.70
2018-10-11T03:19:23.350Z,12.20
2018-10-11T03:20:01.218Z,12.60
2018-10-11T03:20:39.089Z,12.70
2018-10-11T03:21:17.063Z,13.03
2018-10-11T03:21:54.989Z,12.33
2018-10-11T03:22:34.277Z,13.10
2018-10-11T03:23:13.502Z,13.20
2018-10-11T03:23:51.764Z,12.70
2018-10-11T03:24:29.805Z,12.60
2018-10-11T03:25:07.981Z,12.17
2018-10-11T03:25:46.987Z,12.60
2018-10-11T03:26:25.063Z,11.80
2018-10-11T03:27:03.291Z,11.87
2018-10-11T03:27:41.167Z,12.60
2018-10-11T03:28:19.914Z,12.17
2018-10-11T03:28:57.758Z,12.30
2018-10-11T03:29:35.628Z,12.33
2018-10-11T03:30:13.628Z,11.60
2018-10-11T03:30:51.711Z,12.37
2018-10-11T03:31:30.076Z,12.40
2018-10-11T03:32:08.061Z,12.70
2018-10-11T03:32:46.168Z,11.17
2018-10-11T03:33:24.179Z,11.30
2018-10-11T03:34:02.097Z,11.93
2018-10-11T03:34:40.103Z,10.60
2018-10-11T03:35:17.981Z,12.00
2018-10-11T03:35:55.921Z,12.10
2018-10-11T03:36:33.850Z,12.40
2018-10-11T03:37:11.741Z,12.03
2018-10-11T03:37:49.492Z,12.00
2018-10-11T03:38:27.886Z,11.90
2018-10-11T03:39:48.895Z,11.43
2018-10-11T03:40:26.883Z,10.87
2018-10-11T03:41:04.749Z,11.83
2018-10-11T03:41:42.596Z,12.30
2018-10-11T03:42:20.492Z,12.30
2018-10-11T03:42:59.354Z,11.93
2018-10-11T03:43:37.272Z,12.00
2018-10-11T03:44:16.518Z,11.60
2018-10-11T03:44:55.937Z,10.20
2018-10-11T03:45:33.982Z,10.73
2018-10-11T03:46:11.976Z,11.17
2018-10-11T03:46:49.957Z,10.83
2018-10-11T03:47:28.152Z,11.17
2018-10-11T03:48:06.612Z,10.00
2018-10-11T03:48:44.508Z,10.80
2018-10-11T03:49:22.447Z,10.77
2018-10-11T03:50:00.633Z,10.80
2018-10-11T03:50:38.425Z,10.50
2018-10-11T03:51:16.482Z,10.77
2018-10-11T03:51:54.390Z,10.60
2018-10-11T03:52:35.970Z,10.80
2018-10-11T03:53:13.937Z,10.57
2018-10-11T03:53:51.892Z,9.97
2018-10-11T03:54:30.172Z,10.30
2018-10-11T03:55:08.184Z,10.90
2018-10-11T03:55:46.014Z,10.27
2018-10-11T03:56:24.501Z,10.73
2018-10-11T03:57:02.326Z,9.33
2018-10-11T03:57:40.775Z,10.73
2018-10-11T03:58:18.733Z,10.33
2018-10-11T03:58:57.286Z,10.47
2018-10-11T03:59:35.145Z,9.60
2018-10-11T04:00:13.085Z,9.43
2018-10-11T04:00:50.991Z,9.97
2018-10-11T04:01:29.073Z,10.20
2018-10-11T04:02:07.108Z,10.17
2018-10-11T04:02:48.752Z,10.40
2018-10-11T04:03:26.775Z,10.63
2018-10-11T04:04:04.648Z,10.80
2018-10-11T04:04:42.581Z,11.30
2018-10-11T04:05:20.509Z,10.37
2018-10-11T04:05:58.276Z,8.93
2018-10-11T04:06:36.416Z,10.03
2018-10-11T04:07:14.727Z,10.30
2018-10-11T04:07:52.673Z,9.90
2018-10-11T04:08:30.579Z,10.43
2018-10-11T04:09:09.431Z,9.90
2018-10-11T04:09:47.404Z,10.30
2018-10-11T04:10:25.258Z,10.43
2018-10-11T04:11:03.659Z,11.23
2018-10-11T04:11:41.564Z,10.67
2018-10-11T04:12:19.555Z,11.37
2018-10-11T04:12:57.486Z,10.80
2018-10-11T04:13:35.359Z,11.40
2018-10-11T04:14:13.285Z,10.73
2018-10-11T04:14:52.990Z,11.53
2018-10-11T04:15:31.142Z,11.33
2018-10-11T04:16:09.121Z,11.03
2018-10-11T04:16:47.197Z,11.57
2018-10-11T04:17:25.145Z,11.73
2018-10-11T04:18:03.006Z,12.07
2018-10-11T04:18:41.044Z,11.40
2018-10-11T04:19:19.429Z,11.90
2018-10-11T04:19:57.239Z,11.90
2018-10-11T04:20:35.056Z,12.10
2018-10-11T04:21:13.617Z,12.47
2018-10-11T04:21:51.695Z,12.37
2018-10-11T04:22:29.646Z,11.40
2018-10-11T04:23:07.780Z,12.70
2018-10-11T04:23:45.656Z,11.00
2018-10-11T04:24:23.519Z,13.50
2018-10-11T04:25:01.593Z,11.13
2018-10-11T04:25:39.631Z,11.20
2018-10-11T04:26:17.832Z,11.50
2018-10-11T04:26:55.667Z,11.57
2018-10-11T04:27:33.478Z,10.70
2018-10-11T04:28:11.568Z,11.70
2018-10-11T04:28:49.541Z,10.77
2018-10-11T04:29:27.908Z,10.83
2018-10-11T04:30:05.779Z,11.77
2018-10-11T04:30:44.351Z,12.30
2018-10-11T04:31:22.246Z,12.13
2018-10-11T04:32:00.256Z,11.57
2018-10-11T04:32:38.223Z,12.17
2018-10-11T04:33:16.028Z,11.37
2018-10-11T04:33:54.069Z,11.67
2018-10-11T04:34:31.983Z,11.53
2018-10-11T04:35:10.026Z,11.80
2018-10-11T04:35:47.822Z,11.43
2018-10-11T04:36:25.756Z,12.20
2018-10-11T04:37:03.712Z,10.20
2018-10-11T04:37:41.950Z,11.80
2018-10-11T04:38:19.977Z,11.63
2018-10-11T04:38:58.102Z,11.70
2018-10-11T04:39:36.002Z,11.37
2018-10-11T04:40:14.802Z,11.80
2018-10-11T04:40:52.749Z,11.50
2018-10-11T04:43:09.356Z,11.67
2018-10-11T04:43:47.314Z,10.90
2018-10-11T04:44:25.633Z,10.90
2018-10-11T04:45:03.561Z,11.67
2018-10-11T04:45:41.689Z,11.47
2018-10-11T04:46:19.641Z,11.40
2018-10-11T04:46:57.567Z,11.60
2018-10-11T04:47:35.484Z,10.80
2018-10-11T04:48:13.725Z,11.47
2018-10-11T04:48:51.604Z,12.50
2018-10-11T04:49:29.623Z,12.13
2018-10-11T04:50:07.518Z,11.97
2018-10-11T04:50:46.443Z,12.60
2018-10-11T04:51:24.384Z,12.07
2018-10-11T04:52:02.243Z,11.93
2018-10-11T04:52:40.181Z,11.77
2018-10-11T04:53:18.248Z,11.70
2018-10-11T04:53:57.103Z,11.60
2018-10-11T04:54:35.083Z,11.80
2018-10-11T04:55:13.038Z,10.90
2018-10-11T04:55:50.884Z,12.43
2018-10-11T04:56:30.667Z,11.73
2018-10-11T04:57:08.583Z,12.73
2018-10-11T04:57:46.680Z,11.67
2018-10-11T04:58:24.481Z,11.60
2018-10-11T04:59:02.466Z,14.27
2018-10-11T04:59:40.514Z,14.77
2018-10-11T05:00:18.589Z,13.10
2018-10-11T05:00:57.365Z,13.30
2018-10-11T05:01:35.393Z,13.63
2018-10-11T05:02:13.341Z,13.50
2018-10-11T05:02:51.273Z,14.10
2018-10-11T05:03:33.073Z,13.37
2018-10-11T05:04:11.488Z,14.87
2018-10-11T05:04:49.354Z,14.60
2018-10-11T05:05:27.436Z,14.07
2018-10-11T05:06:05.499Z,13.03
2018-10-11T05:06:43.545Z,14.97
2018-10-11T05:07:21.541Z,14.33
2018-10-11T05:07:59.588Z,14.90
2018-10-11T05:08:38.152Z,15.77
2018-10-11T05:09:16.327Z,14.17
2018-10-11T05:09:54.234Z,14.23
2018-10-11T05:10:32.176Z,14.47
2018-10-11T05:11:10.195Z,13.90
2018-10-11T05:11:48.299Z,13.60
2018-10-11T05:12:26.303Z,14.37
2018-10-11T05:13:04.808Z,13.83
2018-10-11T05:13:50.736Z,13.53
2018-10-11T05:14:28.804Z,13.63
2018-10-11T05:15:07.105Z,13.47
2018-10-11T05:15:46.545Z,13.47
2018-10-11T05:16:24.561Z,13.20
2018-10-11T05:17:03.076Z,14.10
2018-10-11T05:17:41.114Z,13.23
2018-10-11T05:18:23.002Z,13.23
2018-10-11T05:19:04.797Z,14.00
2018-10-11T05:19:43.430Z,12.40
2018-10-11T05:20:21.307Z,13.33
2018-10-11T05:20:59.138Z,13.30
2018-10-11T05:21:37.171Z,12.70
2018-10-11T05:25:16.781Z,11.37
2018-10-11T05:25:54.753Z,12.40
2018-10-11T05:26:32.911Z,13.53
2018-10-11T05:27:11.001Z,12.57
2018-10-11T05:27:49.075Z,12.40
2018-10-11T05:28:27.312Z,12.60
2018-10-11T05:29:05.151Z,12.40
2018-10-11T05:29:43.262Z,12.70
2018-10-11T05:30:21.263Z,12.83
2018-10-11T05:30:59.288Z,12.40
2018-10-11T05:31:37.356Z,12.83
2018-10-11T05:32:15.734Z,13.10
2018-10-11T05:32:54.796Z,12.43
2018-10-11T05:33:33.321Z,13.40
2018-10-11T05:34:11.632Z,13.10
2018-10-11T05:34:49.466Z,13.57
2018-10-11T05:35:27.350Z,13.40
2018-10-11T05:36:05.245Z,13.17
2018-10-11T05:36:43.211Z,13.30
2018-10-11T05:37:21.039Z,12.57
2018-10-11T05:37:59.190Z,13.13
2018-10-11T05:38:37.139Z,12.57
2018-10-11T05:39:15.047Z,12.80
2018-10-11T05:39:53.037Z,12.60
2018-10-11T05:40:31.049Z,12.53
2018-10-11T05:41:09.456Z,14.57
2018-10-11T05:41:47.568Z,14.10
2018-10-11T05:42:25.850Z,12.90
2018-10-11T05:43:04.377Z,15.17
2018-10-11T05:43:42.742Z,15.00
2018-10-11T05:44:21.321Z,13.40
2018-10-11T05:45:09.853Z,13.67
2018-10-11T05:45:53.968Z,13.67
2018-10-11T05:46:34.472Z,12.80
2018-10-11T05:47:12.599Z,13.60
2018-10-11T05:47:50.818Z,13.77
2018-10-11T05:48:29.477Z,13.00
2018-10-11T05:49:08.898Z,14.10
2018-10-11T05:49:47.012Z,14.57
2018-10-11T05:50:25.295Z,13.60
2018-10-11T05:51:04.157Z,14.63
2018-10-11T05:51:42.116Z,12.63
2018-10-11T05:52:20.369Z,11.00
2018-10-11T05:52:58.496Z,11.23
2018-10-11T05:53:36.934Z,11.60
2018-10-11T05:54:15.272Z,10.67
2018-10-11T05:54:53.217Z,11.23
2018-10-11T05:55:31.367Z,11.77
2018-10-11T05:56:09.515Z,10.53
2018-10-11T05:56:49.076Z,10.80
2018-10-11T05:57:27.296Z,11.20
2018-10-11T05:58:05.182Z,11.47
2018-10-11T05:58:43.465Z,11.00
2018-10-11T05:59:21.685Z,11.47
2018-10-11T05:59:59.799Z,11.83
2018-10-11T06:00:39.125Z,11.47
2018-10-11T06:01:17.187Z,11.27
2018-10-11T06:01:55.025Z,11.97
2018-10-11T06:02:33.147Z,12.33
2018-10-11T06:03:11.309Z,11.30
2018-10-11T06:03:50.000Z,11.73
2018-10-11T06:04:28.043Z,12.07
2018-10-11T06:05:06.070Z,12.43
2018-10-11T06:05:43.970Z,12.07
2018-10-11T06:06:21.949Z,12.77
2018-10-11T06:07:00.193Z,12.50
2018-10-11T06:07:38.248Z,14.03
2018-10-11T06:08:18.225Z,14.95
2018-10-11T06:08:57.029Z,13.60
2018-10-11T06:09:35.099Z,12.73
2018-10-11T06:10:13.092Z,11.90
2018-10-11T06:10:51.345Z,11.93
2018-10-11T06:11:29.992Z,11.47
2018-10-11T06:12:08.006Z,10.80
2018-10-11T06:12:46.396Z,10.70
2018-10-11T06:13:25.131Z,11.63
2018-10-11T06:14:03.100Z,11.23
2018-10-11T06:14:41.014Z,11.30
2018-10-11T06:15:18.944Z,11.67
2018-10-11T06:15:56.939Z,10.97
2018-10-11T06:16:34.794Z,10.63
2018-10-11T06:17:12.684Z,11.80
2018-10-11T06:17:50.610Z,10.87
2018-10-11T06:18:29.114Z,12.07
2018-10-11T06:19:07.102Z,11.57
2018-10-11T06:19:45.224Z,11.20
2018-10-11T06:20:23.177Z,10.13
2018-10-11T06:21:01.144Z,12.00
2018-10-11T06:21:39.285Z,11.47
2018-10-11T06:22:17.432Z,11.13
2018-10-11T06:22:55.755Z,10.60
2018-10-11T06:23:33.813Z,11.70
2018-10-11T06:24:12.027Z,11.83
2018-10-11T06:24:50.068Z,10.93
2018-10-11T06:25:28.068Z,12.30
2018-10-11T06:26:06.490Z,11.00
2018-10-11T06:26:44.682Z,10.80
2018-10-11T06:27:22.633Z,10.83
2018-10-11T06:28:00.828Z,11.70
2018-10-11T06:28:38.911Z,11.17
2018-10-11T06:29:16.769Z,11.93
2018-10-11T06:30:38.417Z,11.27
2018-10-11T06:31:16.697Z,11.63
2018-10-11T06:31:54.768Z,12.00
2018-10-11T06:32:32.961Z,10.40
2018-10-11T06:33:10.853Z,10.10
2018-10-11T06:33:48.860Z,11.17
2018-10-11T06:34:26.756Z,11.50
2018-10-11T06:35:05.185Z,11.40
2018-10-11T06:35:43.255Z,11.63
2018-10-11T06:36:21.378Z,12.33
2018-10-11T06:37:00.201Z,12.17
2018-10-11T06:37:38.188Z,11.67
2018-10-11T06:38:16.526Z,11.20
2018-10-11T06:38:55.102Z,11.03
2018-10-11T06:39:33.209Z,11.10
2018-10-11T06:40:11.349Z,9.93
2018-10-11T06:40:49.593Z,10.13
2018-10-11T06:41:27.801Z,11.63
2018-10-11T06:42:06.011Z,11.40
2018-10-11T06:42:44.498Z,11.77
2018-10-11T06:43:22.930Z,11.67
2018-10-11T06:44:01.285Z,10.90
2018-10-11T06:44:39.165Z,11.70
2018-10-11T06:45:18.050Z,11.40
2018-10-11T06:45:56.242Z,11.20
2018-10-11T06:46:34.272Z,11.40
2018-10-11T06:47:12.257Z,11.97
2018-10-11T06:47:53.411Z,12.33
2018-10-11T06:48:31.541Z,11.83
2018-10-11T06:49:09.712Z,11.50
2018-10-11T06:49:47.718Z,13.03
2018-10-11T06:50:25.785Z,12.40
2018-10-11T06:51:03.691Z,12.60
2018-10-11T06:51:41.727Z,12.67
2018-10-11T06:52:19.661Z,12.67
2018-10-11T06:52:57.729Z,12.30
2018-10-11T06:53:35.694Z,12.40
2018-10-11T06:54:13.629Z,12.93
2018-10-11T06:54:51.901Z,12.30
2018-10-11T06:55:29.856Z,13.20
2018-10-11T06:56:07.843Z,13.00
2018-10-11T06:56:45.854Z,13.00
2018-10-11T06:57:23.875Z,12.97
2018-10-11T06:58:01.823Z,12.93
2018-10-11T06:58:39.661Z,12.90
2018-10-11T06:59:17.608Z,12.50
2018-10-11T06:59:55.782Z,13.83
2018-10-11T07:00:33.696Z,11.20
2018-10-11T07:01:12.865Z,12.77
2018-10-11T07:01:50.969Z,12.53
2018-10-11T07:02:28.979Z,11.97
2018-10-11T07:03:07.126Z,13.03
2018-10-11T07:03:45.212Z,13.87
2018-10-11T07:04:23.058Z,13.33
2018-10-11T07:05:01.087Z,12.90
2018-10-11T07:05:38.957Z,12.70
2018-10-11T07:06:17.121Z,12.27
2018-10-11T07:06:55.050Z,12.70
2018-10-11T07:07:32.901Z,13.40
2018-10-11T07:08:10.743Z,12.93
2018-10-11T07:08:48.700Z,12.57
2018-10-11T07:09:26.605Z,11.80
2018-10-11T07:10:04.523Z,10.30
2018-10-11T07:10:42.502Z,11.37
2018-10-11T07:11:24.948Z,11.20
2018-10-11T07:12:02.988Z,10.20
2018-10-11T07:12:41.135Z,9.60
2018-10-11T07:13:19.016Z,8.33
2018-10-11T07:13:56.990Z,7.97
2018-10-11T07:14:34.893Z,7.40
2018-10-11T07:15:12.835Z,8.00
2018-10-11T07:15:50.744Z,8.10
2018-10-11T07:16:28.675Z,7.77
2018-10-11T07:17:06.533Z,8.00
2018-10-11T07:17:44.391Z,7.50
2018-10-11T07:18:22.291Z,8.00
2018-10-11T07:19:00.223Z,8.40
2018-10-11T07:19:39.400Z,8.27
2018-10-11T07:20:17.478Z,7.40
2018-10-11T07:20:55.409Z,7.50
2018-10-11T07:21:34.313Z,8.70
2018-10-11T07:22:12.109Z,8.77
2018-10-11T07:22:50.028Z,9.10
2018-10-11T07:23:27.919Z,9.40
2018-10-11T07:24:05.846Z,8.47
2018-10-11T07:24:43.671Z,8.83
2018-10-11T07:25:21.737Z,9.10
2018-10-11T07:25:59.695Z,7.77
2018-10-11T07:26:38.036Z,8.27
2018-10-11T07:27:15.938Z,7.77
2018-10-11T07:27:53.882Z,8.40
2018-10-11T07:28:31.720Z,8.80
2018-10-11T07:29:09.569Z,8.27
2018-10-11T07:29:47.522Z,9.47
2018-10-11T07:30:25.677Z,8.27
2018-10-11T07:31:03.582Z,8.17
2018-10-11T07:31:41.381Z,7.77
2018-10-11T07:32:19.240Z,7.87
2018-10-11T07:32:57.383Z,7.40
2018-10-11T07:33:35.388Z,7.40
2018-10-11T07:34:13.361Z,8.10
2018-10-11T07:34:51.327Z,7.70
2018-10-11T07:35:29.574Z,8.33
2018-10-11T07:36:07.683Z,7.00
2018-10-11T07:36:45.597Z,6.27
2018-10-11T07:37:23.468Z,5.90
2018-10-11T07:38:01.429Z,5.13
2018-10-11T07:38:39.376Z,6.10
2018-10-11T07:39:17.276Z,4.77
2018-10-11T07:39:55.138Z,5.00
2018-10-11T07:40:33.285Z,5.13
2018-10-11T07:41:11.716Z,5.30
2018-10-11T07:41:49.549Z,4.60
2018-10-11T07:42:27.466Z,4.70
2018-10-11T07:43:05.318Z,4.30
2018-10-11T07:43:43.260Z,4.87
2018-10-11T07:44:21.241Z,4.90
2018-10-11T07:44:59.121Z,4.40
2018-10-11T07:45:37.175Z,4.20
2018-10-11T07:46:15.089Z,3.80
2018-10-11T07:46:53.011Z,3.77
2018-10-11T07:47:30.874Z,4.00
2018-10-11T07:48:08.794Z,4.00
2018-10-11T07:48:46.879Z,3.70
2018-10-11T07:49:24.842Z,3.80
2018-10-11T07:50:02.764Z,3.77
2018-10-11T07:50:40.621Z,4.00
2018-10-11T07:51:18.552Z,4.27
2018-10-11T07:51:56.475Z,4.50
2018-10-11T07:52:34.417Z,4.67
2018-10-11T07:53:12.367Z,5.07
2018-10-11T07:53:50.230Z,4.97
2018-10-11T07:54:34.773Z,4.13
2018-10-11T07:55:12.654Z,4.10
2018-10-11T07:55:50.561Z,4.60
2018-10-11T07:56:28.392Z,4.90
2018-10-11T07:57:06.616Z,4.53
2018-10-11T07:57:44.484Z,4.63
2018-10-11T07:58:22.517Z,4.53
2018-10-11T07:59:01.104Z,4.90
2018-10-11T07:59:39.039Z,3.80
2018-10-11T08:00:16.983Z,5.00
2018-10-11T08:00:54.828Z,4.60
2018-10-11T08:01:33.346Z,4.37
2018-10-11T08:02:11.387Z,4.37
2018-10-11T08:02:49.229Z,4.90
2018-10-11T08:03:27.252Z,4.33
2018-10-11T08:04:05.346Z,4.30
2018-10-11T08:04:43.430Z,5.03
2018-10-11T08:05:21.301Z,4.90
2018-10-11T08:05:59.258Z,4.87
2018-10-11T08:06:37.213Z,4.47
2018-10-11T08:07:15.233Z,5.20
2018-10-11T08:07:53.346Z,4.20
2018-10-11T08:08:31.343Z,5.20
2018-10-11T08:09:10.794Z,5.57
2018-10-11T08:09:48.841Z,5.53
2018-10-11T08:10:26.772Z,4.90
2018-10-11T08:11:05.108Z,5.40
2018-10-11T08:11:42.999Z,4.80
2018-10-11T08:12:21.176Z,4.50
2018-10-11T08:12:59.114Z,4.50
2018-10-11T08:13:37.044Z,4.83
2018-10-11T08:14:15.163Z,5.47
2018-10-11T08:14:53.079Z,4.90
2018-10-11T08:15:31.077Z,4.97
2018-10-11T08:16:09.597Z,4.70
2018-10-11T08:16:47.667Z,4.90
2018-10-11T08:17:25.765Z,4.50
2018-10-11T08:18:03.865Z,4.60
2018-10-11T08:18:41.726Z,4.87
2018-10-11T08:19:19.999Z,5.07
2018-10-11T08:19:57.813Z,4.97
2018-10-11T08:20:35.890Z,5.20
2018-10-11T08:21:13.941Z,4.87
2018-10-11T08:21:52.097Z,4.73
2018-10-11T08:22:30.145Z,5.13
2018-10-11T08:23:09.008Z,6.00
2018-10-11T08:23:46.934Z,4.87
2018-10-11T08:24:24.882Z,5.53
2018-10-11T08:25:02.927Z,5.20